Time,TemperatureF,DewpointF,PressureIn,WindDirection,WindDirectionDegrees,WindSpeedMPH,WindSpeedGustMPH,Humidity,HourlyPrecipIn,Conditions,Clouds,dailyrainin,SolarRadiationWatts/m^2,SoftwareType,DateUTC
2017-05-26 00:01:00,55.2,46.0,29.56,West,265,2.0,4.0,71,0.00,,,0.00,0,Wunderground v.1.15,2017-05-26 05:01:00,
2017-05-26 00:06:00,54.8,45.9,29.57,West,265,3.0,4.0,72,0.00,,,0.00,0,Wunderground v.1.15,2017-05-26 05:06:00,
2017-05-26 00:11:00,54.5,45.7,29.57,West,265,3.0,3.0,72,0.00,,,0.00,0,Wunderground v.1.15,2017-05-26 05:11:00,
2017-05-26 00:17:00,54.1,45.6,29.57,West,265,2.0,4.0,73,0.00,,,0.00,0,Wunderground v.1.15,2017-05-26 05:17:00,
2017-05-26 00:22:00,53.9,45.8,29.57,West,265,1.0,3.0,74,0.00,,,0.00,0,Wunderground v.1.15,2017-05-26 05:22:00,
2017-05-26 00:28:00,53.7,45.6,29.57,West,265,2.0,4.0,74,0.00,,,0.00,0,Wunderground v.1.15,2017-05-26 05:28:00,
2017-05-26 00:33:00,53.6,45.9,29.57,West,265,3.0,4.0,75,0.00,,,0.00,0,Wunderground v.1.15,2017-05-26 05:33:00,
2017-05-26 00:38:00,53.3,45.6,29.57,West,265,3.0,4.0,75,0.00,,,0.00,0,Wunderground v.1.15,2017-05-26 05:38:00,
2017-05-26 00:43:00,53.0,45.3,29.57,West,265,4.0,4.0,75,0.00,,,0.00,0,Wunderground v.1.15,2017-05-26 05:43:00,
2017-05-26 00:48:00,52.7,45.3,29.57,West,265,3.0,4.0,76,0.00,,,0.00,0,Wunderground v.1.15,2017-05-26 05:48:00,
2017-05-26 00:53:00,52.3,45.0,29.57,West,265,3.0,3.0,76,0.00,,,0.00,0,Wunderground v.1.15,2017-05-26 05:53:00,
2017-05-26 00:58:00,52.0,45.0,29.58,West,265,3.0,3.0,77,0.00,,,0.00,0,Wunderground v.1.15,2017-05-26 05:58:00,
2017-05-26 01:04:00,51.5,44.9,29.57,West,265,3.0,4.0,78,0.00,,,0.00,0,Wunderground v.1.15,2017-05-26 06:04:00,
2017-05-26 01:09:00,51.2,44.9,29.58,West,265,2.0,4.0,79,0.00,,,0.00,0,Wunderground v.1.15,2017-05-26 06:09:00,
2017-05-26 01:14:00,51.0,44.7,29.58,West,265,4.0,4.0,79,0.00,,,0.00,0,Wunderground v.1.15,2017-05-26 06:14:00,
2017-05-26 01:19:00,50.8,44.9,29.58,West,263,5.0,5.0,80,0.00,,,0.00,0,Wunderground v.1.15,2017-05-26 06:19:00,
2017-05-26 01:24:00,50.8,44.9,29.58,WSW,257,9.0,9.0,80,0.00,,,0.00,0,Wunderground v.1.15,2017-05-26 06:24:00,
2017-05-26 01:30:00,50.8,44.9,29.59,WSW,241,4.0,5.0,80,0.00,,,0.00,0,Wunderground v.1.15,2017-05-26 06:30:00,
2017-05-26 01:36:00,50.8,45.2,29.59,SW,232,6.0,8.0,81,0.00,,,0.00,0,Wunderground v.1.15,2017-05-26 06:36:00,
2017-05-26 01:41:00,50.7,45.1,29.59,SW,230,4.0,6.0,81,0.00,,,0.00,0,Wunderground v.1.15,2017-05-26 06:41:00,
2017-05-26 01:46:00,50.6,45.0,29.59,SW,233,6.0,6.0,81,0.00,,,0.00,0,Wunderground v.1.15,2017-05-26 06:46:00,
2017-05-26 01:52:00,50.5,45.2,29.58,WSW,242,4.0,8.0,82,0.00,,,0.00,0,Wunderground v.1.15,2017-05-26 06:52:00,
2017-05-26 01:57:00,50.5,45.2,29.59,WSW,244,5.0,8.0,82,0.00,,,0.00,0,Wunderground v.1.15,2017-05-26 06:57:00,
2017-05-26 02:02:00,50.4,45.1,29.59,WSW,244,4.0,9.0,82,0.00,,,0.00,0,Wunderground v.1.15,2017-05-26 07:02:00,
2017-05-26 02:07:00,50.3,45.0,29.59,WSW,244,5.0,11.0,82,0.00,,,0.00,0,Wunderground v.1.15,2017-05-26 07:07:00,
2017-05-26 02:12:00,50.2,44.9,29.59,WSW,245,3.0,9.0,82,0.00,,,0.00,0,Wunderground v.1.15,2017-05-26 07:12:00,
2017-05-26 02:17:00,50.1,44.8,29.59,WSW,247,5.0,9.0,82,0.00,,,0.00,0,Wunderground v.1.15,2017-05-26 07:17:00,
2017-05-26 02:22:00,50.0,44.7,29.59,WSW,245,8.0,9.0,82,0.00,,,0.00,0,Wunderground v.1.15,2017-05-26 07:22:00,
2017-05-26 02:27:00,49.9,44.6,29.59,WSW,244,6.0,9.0,82,0.00,,,0.00,0,Wunderground v.1.15,2017-05-26 07:27:00,
2017-05-26 02:32:00,49.8,44.8,29.59,WSW,247,6.0,7.0,83,0.00,,,0.00,0,Wunderground v.1.15,2017-05-26 07:32:00,
2017-05-26 02:37:00,49.7,44.4,29.59,WSW,248,5.0,8.0,82,0.00,,,0.00,0,Wunderground v.1.15,2017-05-26 07:37:00,
2017-05-26 02:42:00,49.7,44.7,29.59,WSW,248,6.0,8.0,83,0.00,,,0.00,0,Wunderground v.1.15,2017-05-26 07:42:00,
2017-05-26 02:44:00,49.7,44.4,29.59,WSW,249,5.0,9.0,82,0.00,,,0.00,0,Wunderground v.1.15,2017-05-26 07:44:00,
2017-05-26 02:49:00,49.7,44.4,29.59,WSW,249,5.0,9.0,82,0.00,,,0.00,0,Wunderground v.1.15,2017-05-26 07:49:00,
2017-05-26 02:54:00,49.7,44.4,29.59,WSW,248,3.0,7.0,82,0.00,,,0.00,0,Wunderground v.1.15,2017-05-26 07:54:00,
2017-05-26 02:59:00,49.6,44.3,29.59,WSW,248,4.0,7.0,82,0.00,,,0.00,0,Wunderground v.1.15,2017-05-26 07:59:00,
2017-05-26 03:05:00,49.4,44.1,29.59,WSW,247,3.0,7.0,82,0.00,,,0.00,0,Wunderground v.1.15,2017-05-26 08:05:00,
2017-05-26 03:10:00,49.3,44.0,29.59,WSW,246,5.0,5.0,82,0.00,,,0.00,0,Wunderground v.1.15,2017-05-26 08:10:00,
2017-05-26 03:15:00,49.1,44.2,29.59,WSW,246,6.0,7.0,83,0.00,,,0.00,0,Wunderground v.1.15,2017-05-26 08:15:00,
2017-05-26 03:20:00,48.9,44.0,29.60,WSW,246,4.0,5.0,83,0.00,,,0.00,0,Wunderground v.1.15,2017-05-26 08:20:00,
2017-05-26 03:25:00,48.8,43.9,29.60,WSW,245,5.0,6.0,83,0.00,,,0.00,0,Wunderground v.1.15,2017-05-26 08:25:00,
2017-05-26 03:30:00,48.6,43.7,29.60,WSW,245,5.0,6.0,83,0.00,,,0.00,0,Wunderground v.1.15,2017-05-26 08:30:00,
2017-05-26 03:36:00,48.4,43.8,29.60,WSW,245,5.0,7.0,84,0.00,,,0.00,0,Wunderground v.1.15,2017-05-26 08:36:00,
2017-05-26 03:41:00,48.3,43.7,29.60,WSW,244,5.0,6.0,84,0.00,,,0.00,0,Wunderground v.1.15,2017-05-26 08:41:00,
2017-05-26 03:46:00,48.2,43.6,29.60,WSW,243,5.0,6.0,84,0.00,,,0.00,0,Wunderground v.1.15,2017-05-26 08:46:00,
2017-05-26 03:51:00,47.9,43.3,29.61,WSW,242,3.0,5.0,84,0.00,,,0.00,0,Wunderground v.1.15,2017-05-26 08:51:00,
2017-05-26 03:56:00,47.5,42.9,29.61,WSW,242,4.0,5.0,84,0.00,,,0.00,0,Wunderground v.1.15,2017-05-26 08:56:00,
2017-05-26 04:01:00,47.2,42.6,29.61,WSW,241,5.0,5.0,84,0.00,,,0.00,0,Wunderground v.1.15,2017-05-26 09:01:00,
2017-05-26 04:06:00,46.9,42.6,29.61,WSW,241,3.0,5.0,85,0.00,,,0.00,0,Wunderground v.1.15,2017-05-26 09:06:00,
2017-05-26 04:11:00,46.7,42.4,29.61,WSW,242,3.0,5.0,85,0.00,,,0.00,0,Wunderground v.1.15,2017-05-26 09:11:00,
2017-05-26 04:16:00,46.5,42.2,29.61,WSW,241,2.0,5.0,85,0.00,,,0.00,0,Wunderground v.1.15,2017-05-26 09:16:00,
2017-05-26 04:21:00,46.1,41.8,29.61,WSW,242,3.0,4.0,85,0.00,,,0.00,0,Wunderground v.1.15,2017-05-26 09:21:00,
2017-05-26 04:26:00,45.9,41.6,29.61,WSW,241,4.0,6.0,85,0.00,,,0.00,0,Wunderground v.1.15,2017-05-26 09:26:00,
2017-05-26 04:31:00,46.0,42.0,29.61,WSW,241,6.0,6.0,86,0.00,,,0.00,0,Wunderground v.1.15,2017-05-26 09:31:00,
2017-05-26 04:36:00,46.2,42.2,29.61,WSW,240,5.0,9.0,86,0.00,,,0.00,0,Wunderground v.1.15,2017-05-26 09:36:00,
2017-05-26 04:41:00,46.4,42.4,29.61,WSW,238,6.0,8.0,86,0.00,,,0.00,0,Wunderground v.1.15,2017-05-26 09:41:00,
2017-05-26 04:46:00,46.5,42.5,29.61,SW,236,5.0,9.0,86,0.00,,,0.00,0,Wunderground v.1.15,2017-05-26 09:46:00,
2017-05-26 04:51:00,46.6,42.6,29.61,WSW,238,3.0,7.0,86,0.00,,,0.00,0,Wunderground v.1.15,2017-05-26 09:51:00,
2017-05-26 04:56:00,46.8,42.8,29.61,WSW,246,9.0,11.0,86,0.00,,,0.00,0,Wunderground v.1.15,2017-05-26 09:56:00,
2017-05-26 05:01:00,47.2,43.2,29.61,WSW,251,4.0,9.0,86,0.00,,,0.00,0,Wunderground v.1.15,2017-05-26 10:01:00,
2017-05-26 05:06:00,47.5,43.5,29.61,WSW,249,9.0,11.0,86,0.00,,,0.00,0,Wunderground v.1.15,2017-05-26 10:06:00,
2017-05-26 05:11:00,47.8,43.5,29.62,WSW,252,7.0,10.0,85,0.00,,,0.00,0,Wunderground v.1.15,2017-05-26 10:11:00,
2017-05-26 05:16:00,47.9,43.6,29.62,WSW,251,9.0,11.0,85,0.00,,,0.00,0,Wunderground v.1.15,2017-05-26 10:16:00,
2017-05-26 05:21:00,47.9,43.3,29.62,WSW,255,7.0,11.0,84,0.00,,,0.00,0,Wunderground v.1.15,2017-05-26 10:21:00,
2017-05-26 05:26:00,47.9,43.3,29.62,WSW,254,6.0,12.0,84,0.00,,,0.00,0,Wunderground v.1.15,2017-05-26 10:26:00,
2017-05-26 05:31:00,47.9,43.3,29.62,WSW,257,10.0,13.0,84,0.00,,,0.00,0,Wunderground v.1.15,2017-05-26 10:31:00,
2017-05-26 05:36:00,47.9,43.3,29.63,WSW,252,10.0,13.0,84,0.00,,,0.00,0,Wunderground v.1.15,2017-05-26 10:36:00,
2017-05-26 05:41:00,47.9,43.3,29.63,WSW,249,6.0,11.0,84,0.00,,,0.00,0,Wunderground v.1.15,2017-05-26 10:41:00,
2017-05-26 05:46:00,47.9,43.3,29.63,WSW,252,7.0,13.0,84,0.00,,,0.00,0,Wunderground v.1.15,2017-05-26 10:46:00,
2017-05-26 05:51:00,47.8,43.2,29.63,WSW,257,9.0,12.0,84,0.00,,,0.00,5,Wunderground v.1.15,2017-05-26 10:51:00,
2017-05-26 05:56:00,47.9,43.3,29.63,West,261,9.0,12.0,84,0.00,,,0.00,7,Wunderground v.1.15,2017-05-26 10:56:00,
2017-05-26 06:01:00,47.9,43.3,29.63,West,263,7.0,13.0,84,0.00,,,0.00,9,Wunderground v.1.15,2017-05-26 11:01:00,
2017-05-26 06:07:00,48.1,43.5,29.63,West,267,12.0,13.0,84,0.00,,,0.00,12,Wunderground v.1.15,2017-05-26 11:07:00,
2017-05-26 06:12:00,48.2,43.6,29.64,West,259,6.0,11.0,84,0.00,,,0.00,14,Wunderground v.1.15,2017-05-26 11:12:00,
2017-05-26 06:17:00,48.3,43.7,29.64,West,262,6.0,11.0,84,0.00,,,0.00,16,Wunderground v.1.15,2017-05-26 11:17:00,
2017-05-26 06:22:00,48.4,43.8,29.64,West,267,8.0,13.0,84,0.00,,,0.00,18,Wunderground v.1.15,2017-05-26 11:22:00,
2017-05-26 06:27:00,48.6,44.0,29.64,West,259,12.0,13.0,84,0.00,,,0.00,23,Wunderground v.1.15,2017-05-26 11:27:00,
2017-05-26 06:32:00,48.7,43.8,29.64,WSW,254,9.0,11.0,83,0.00,,,0.00,32,Wunderground v.1.15,2017-05-26 11:32:00,
2017-05-26 06:37:00,48.9,44.0,29.65,WSW,253,11.0,14.0,83,0.00,,,0.00,40,Wunderground v.1.15,2017-05-26 11:37:00,
2017-05-26 06:43:00,49.3,44.4,29.65,WSW,250,10.0,13.0,83,0.00,,,0.00,51,Wunderground v.1.15,2017-05-26 11:43:00,
2017-05-26 06:48:00,49.6,44.6,29.65,WSW,238,12.0,15.0,83,0.00,,,0.00,63,Wunderground v.1.15,2017-05-26 11:48:00,
2017-05-26 06:53:00,49.9,44.6,29.65,WSW,254,11.0,13.0,82,0.00,,,0.00,77,Wunderground v.1.15,2017-05-26 11:53:00,
2017-05-26 06:58:00,50.4,45.1,29.65,West,261,15.0,17.0,82,0.00,,,0.00,88,Wunderground v.1.15,2017-05-26 11:58:00,
2017-05-26 07:03:00,50.7,45.1,29.65,West,259,7.0,15.0,81,0.00,,,0.00,104,Wunderground v.1.15,2017-05-26 12:03:00,
2017-05-26 07:08:00,51.1,45.5,29.65,WSW,250,12.0,15.0,81,0.00,,,0.00,121,Wunderground v.1.15,2017-05-26 12:08:00,
2017-05-26 07:13:00,51.4,45.8,29.66,WSW,250,11.0,14.0,81,0.00,,,0.00,139,Wunderground v.1.15,2017-05-26 12:13:00,
2017-05-26 07:18:00,51.6,46.0,29.66,WSW,252,12.0,14.0,81,0.00,,,0.00,160,Wunderground v.1.15,2017-05-26 12:18:00,
2017-05-26 07:23:00,52.0,46.0,29.66,West,268,9.0,15.0,80,0.00,,,0.00,181,Wunderground v.1.15,2017-05-26 12:23:00,
2017-05-26 07:28:00,52.3,46.3,29.66,WSW,252,11.0,19.0,80,0.00,,,0.00,204,Wunderground v.1.15,2017-05-26 12:28:00,
2017-05-26 07:33:00,52.9,46.2,29.66,West,270,16.0,17.0,78,0.00,,,0.00,225,Wunderground v.1.15,2017-05-26 12:33:00,
2017-05-26 07:38:00,53.4,46.4,29.66,West,271,17.0,20.0,77,0.00,,,0.00,237,Wunderground v.1.15,2017-05-26 12:38:00,
2017-05-26 07:43:00,53.7,46.3,29.66,WNW,284,19.0,19.0,76,0.00,,,0.00,278,Wunderground v.1.15,2017-05-26 12:43:00,
2017-05-26 07:48:00,54.1,46.3,29.66,West,267,10.0,21.0,75,0.00,,,0.00,308,Wunderground v.1.15,2017-05-26 12:48:00,
2017-05-26 07:53:00,54.5,46.7,29.66,West,280,12.0,16.0,75,0.00,,,0.00,341,Wunderground v.1.15,2017-05-26 12:53:00,
2017-05-26 07:58:00,55.1,46.6,29.66,West,274,14.0,21.0,73,0.00,,,0.00,345,Wunderground v.1.15,2017-05-26 12:58:00,
2017-05-26 08:03:00,55.3,46.8,29.67,West,259,15.0,17.0,73,0.00,,,0.00,308,Wunderground v.1.15,2017-05-26 13:03:00,
2017-05-26 08:08:00,55.7,46.8,29.67,West,275,19.0,21.0,72,0.00,,,0.00,383,Wunderground v.1.15,2017-05-26 13:08:00,
2017-05-26 08:13:00,55.9,46.6,29.67,WSW,250,15.0,23.0,71,0.00,,,0.00,380,Wunderground v.1.15,2017-05-26 13:13:00,
2017-05-26 08:18:00,56.0,46.7,29.67,West,279,16.0,23.0,71,0.00,,,0.00,292,Wunderground v.1.15,2017-05-26 13:18:00,
2017-05-26 08:23:00,55.7,46.4,29.67,West,271,16.0,19.0,71,0.00,,,0.00,250,Wunderground v.1.15,2017-05-26 13:23:00,
2017-05-26 08:28:00,55.4,46.5,29.67,West,270,13.0,19.0,72,0.00,,,0.00,285,Wunderground v.1.15,2017-05-26 13:28:00,
2017-05-26 08:33:00,55.5,46.6,29.68,West,265,16.0,22.0,72,0.00,,,0.00,411,Wunderground v.1.15,2017-05-26 13:33:00,
2017-05-26 08:38:00,55.7,46.8,29.68,West,263,10.0,22.0,72,0.00,,,0.00,274,Wunderground v.1.15,2017-05-26 13:38:00,
2017-05-26 08:43:00,55.7,46.4,29.68,West,263,11.0,16.0,71,0.00,,,0.00,285,Wunderground v.1.15,2017-05-26 13:43:00,
2017-05-26 08:48:00,55.8,46.5,29.68,West,269,15.0,17.0,71,0.00,,,0.00,388,Wunderground v.1.15,2017-05-26 13:48:00,
2017-05-26 08:53:00,56.1,46.8,29.68,West,269,12.0,20.0,71,0.00,,,0.00,330,Wunderground v.1.15,2017-05-26 13:53:00,
2017-05-26 08:58:00,56.2,46.5,29.68,West,267,10.0,20.0,70,0.00,,,0.00,308,Wunderground v.1.15,2017-05-26 13:58:00,
2017-05-26 09:03:00,56.2,46.5,29.68,West,264,12.0,17.0,70,0.00,,,0.00,364,Wunderground v.1.15,2017-05-26 14:03:00,
2017-05-26 09:09:00,56.6,46.9,29.68,West,270,12.0,19.0,70,0.00,,,0.00,515,Wunderground v.1.15,2017-05-26 14:09:00,
2017-05-26 09:14:00,57.0,46.5,29.68,West,278,8.0,18.0,68,0.00,,,0.00,503,Wunderground v.1.15,2017-05-26 14:14:00,
2017-05-26 09:19:00,57.3,46.4,29.68,West,273,15.0,20.0,67,0.00,,,0.00,504,Wunderground v.1.15,2017-05-26 14:19:00,
2017-05-26 09:24:00,57.5,46.2,29.68,West,268,16.0,21.0,66,0.00,,,0.00,534,Wunderground v.1.15,2017-05-26 14:24:00,
2017-05-26 09:30:00,57.8,46.5,29.69,West,268,16.0,16.0,66,0.00,,,0.00,547,Wunderground v.1.15,2017-05-26 14:30:00,
2017-05-26 09:35:00,58.0,46.3,29.69,West,263,17.0,24.0,65,0.00,,,0.00,563,Wunderground v.1.15,2017-05-26 14:35:00,
2017-05-26 09:40:00,58.3,46.6,29.69,West,270,15.0,19.0,65,0.00,,,0.00,599,Wunderground v.1.15,2017-05-26 14:40:00,
2017-05-26 09:45:00,58.4,46.3,29.69,West,281,17.0,22.0,64,0.00,,,0.00,610,Wunderground v.1.15,2017-05-26 14:45:00,
2017-05-26 09:50:00,59.2,46.6,29.69,West,276,17.0,21.0,63,0.00,,,0.00,735,Wunderground v.1.15,2017-05-26 14:50:00,
2017-05-26 09:55:00,59.2,45.8,29.69,West,279,17.0,23.0,61,0.00,,,0.00,663,Wunderground v.1.15,2017-05-26 14:55:00,
2017-05-26 10:00:00,59.2,45.8,29.69,West,271,16.0,18.0,61,0.00,,,0.00,684,Wunderground v.1.15,2017-05-26 15:00:00,
2017-05-26 10:05:00,59.3,45.4,29.69,West,277,13.0,20.0,60,0.00,,,0.00,807,Wunderground v.1.15,2017-05-26 15:05:00,
2017-05-26 10:10:00,59.5,45.2,29.69,West,265,16.0,18.0,59,0.00,,,0.00,359,Wunderground v.1.15,2017-05-26 15:10:00,
2017-05-26 10:15:00,59.2,44.9,29.69,West,266,12.0,20.0,59,0.00,,,0.00,327,Wunderground v.1.15,2017-05-26 15:15:00,
2017-05-26 10:20:00,59.2,44.4,29.69,West,279,7.0,16.0,58,0.00,,,0.00,237,Wunderground v.1.15,2017-05-26 15:20:00,
2017-05-26 10:25:00,59.2,44.9,29.69,West,275,10.0,19.0,59,0.00,,,0.00,747,Wunderground v.1.15,2017-05-26 15:25:00,
2017-05-26 10:30:00,59.2,44.4,29.69,West,274,9.0,15.0,58,0.00,,,0.00,984,Wunderground v.1.15,2017-05-26 15:30:00,
2017-05-26 10:35:00,58.9,44.1,29.70,West,281,12.0,19.0,58,0.00,,,0.00,309,Wunderground v.1.15,2017-05-26 15:35:00,
2017-05-26 10:41:00,58.7,44.0,29.70,WNW,296,14.0,15.0,58,0.00,,,0.00,302,Wunderground v.1.15,2017-05-26 15:41:00,
2017-05-26 10:46:00,58.6,44.3,29.70,West,281,15.0,18.0,59,0.00,,,0.00,353,Wunderground v.1.15,2017-05-26 15:46:00,
2017-05-26 10:51:00,58.6,43.9,29.70,West,269,11.0,18.0,58,0.00,,,0.00,420,Wunderground v.1.15,2017-05-26 15:51:00,
2017-05-26 10:56:00,58.8,44.0,29.70,West,279,15.0,18.0,58,0.00,,,0.00,445,Wunderground v.1.15,2017-05-26 15:56:00,
2017-05-26 11:01:00,59.2,44.9,29.70,West,264,15.0,15.0,59,0.00,,,0.00,438,Wunderground v.1.15,2017-05-26 16:01:00,
2017-05-26 11:06:00,59.2,44.0,29.70,WSW,254,9.0,17.0,57,0.00,,,0.00,322,Wunderground v.1.15,2017-05-26 16:06:00,
2017-05-26 11:11:00,59.2,44.9,29.70,WSW,253,7.0,17.0,59,0.00,,,0.00,299,Wunderground v.1.15,2017-05-26 16:11:00,
2017-05-26 11:16:00,59.2,44.0,29.70,West,280,12.0,20.0,57,0.00,,,0.00,388,Wunderground v.1.15,2017-05-26 16:16:00,
2017-05-26 11:21:00,59.2,44.4,29.71,West,275,12.0,18.0,58,0.00,,,0.00,445,Wunderground v.1.15,2017-05-26 16:21:00,
2017-05-26 11:26:00,59.2,43.5,29.71,West,263,11.0,21.0,56,0.00,,,0.00,422,Wunderground v.1.15,2017-05-26 16:26:00,
2017-05-26 11:31:00,59.2,44.0,29.71,West,268,13.0,21.0,57,0.00,,,0.00,473,Wunderground v.1.15,2017-05-26 16:31:00,
2017-05-26 11:36:00,59.3,44.1,29.71,West,265,9.0,21.0,57,0.00,,,0.00,381,Wunderground v.1.15,2017-05-26 16:36:00,
2017-05-26 11:41:00,59.6,44.3,29.71,WNW,284,18.0,21.0,57,0.00,,,0.00,446,Wunderground v.1.15,2017-05-26 16:41:00,
2017-05-26 11:46:00,59.9,44.2,29.71,West,259,15.0,21.0,56,0.00,,,0.00,431,Wunderground v.1.15,2017-05-26 16:46:00,
2017-05-26 11:51:00,59.9,44.2,29.71,West,269,15.0,19.0,56,0.00,,,0.00,373,Wunderground v.1.15,2017-05-26 16:51:00,
2017-05-26 11:56:00,59.8,43.6,29.71,West,267,13.0,19.0,55,0.00,,,0.00,461,Wunderground v.1.15,2017-05-26 16:56:00,
2017-05-26 12:01:00,59.9,44.2,29.71,WSW,254,11.0,17.0,56,0.00,,,0.00,454,Wunderground v.1.15,2017-05-26 17:01:00,
2017-05-26 12:06:00,60.1,43.9,29.71,West,267,14.0,25.0,55,0.00,,,0.00,561,Wunderground v.1.15,2017-05-26 17:06:00,
2017-05-26 12:11:00,60.2,44.0,29.71,West,260,16.0,18.0,55,0.00,,,0.00,635,Wunderground v.1.15,2017-05-26 17:11:00,
2017-05-26 12:16:00,60.4,44.2,29.72,West,267,17.0,21.0,55,0.00,,,0.00,608,Wunderground v.1.15,2017-05-26 17:16:00,
2017-05-26 12:21:00,60.4,44.6,29.72,WNW,288,14.0,18.0,56,0.00,,,0.00,570,Wunderground v.1.15,2017-05-26 17:21:00,
2017-05-26 12:26:00,60.7,43.9,29.71,WNW,288,18.0,19.0,54,0.00,,,0.00,643,Wunderground v.1.15,2017-05-26 17:26:00,
2017-05-26 12:31:00,61.2,44.9,29.72,WNW,285,12.0,16.0,55,0.00,,,0.00,529,Wunderground v.1.15,2017-05-26 17:31:00,
2017-05-26 12:36:00,61.4,44.6,29.72,WNW,285,16.0,22.0,54,0.00,,,0.00,534,Wunderground v.1.15,2017-05-26 17:36:00,
2017-05-26 12:41:00,61.3,44.5,29.72,West,265,15.0,19.0,54,0.00,,,0.00,568,Wunderground v.1.15,2017-05-26 17:41:00,
2017-05-26 12:46:00,61.2,43.9,29.72,West,266,14.0,22.0,53,0.00,,,0.00,610,Wunderground v.1.15,2017-05-26 17:46:00,
2017-05-26 12:51:00,61.3,44.5,29.72,WNW,288,18.0,23.0,54,0.00,,,0.00,671,Wunderground v.1.15,2017-05-26 17:51:00,
2017-05-26 12:56:00,61.5,44.2,29.72,WNW,291,16.0,23.0,53,0.00,,,0.00,809,Wunderground v.1.15,2017-05-26 17:56:00,
2017-05-26 13:02:00,61.6,43.8,29.72,WNW,287,17.0,23.0,52,0.00,,,0.00,489,Wunderground v.1.15,2017-05-26 18:02:00,
2017-05-26 13:07:00,61.8,45.0,29.72,West,275,24.0,24.0,54,0.00,,,0.00,656,Wunderground v.1.15,2017-05-26 18:07:00,
2017-05-26 13:12:00,61.8,45.0,29.72,WNW,288,18.0,20.0,54,0.00,,,0.00,656,Wunderground v.1.15,2017-05-26 18:12:00,
2017-05-26 13:17:00,61.6,44.3,29.72,NW,311,18.0,22.0,53,0.00,,,0.00,582,Wunderground v.1.15,2017-05-26 18:17:00,
2017-05-26 13:22:00,61.7,44.9,29.72,WNW,295,18.0,18.0,54,0.00,,,0.00,450,Wunderground v.1.15,2017-05-26 18:22:00,
2017-05-26 13:27:00,61.5,44.2,29.72,West,265,15.0,24.0,53,0.00,,,0.00,573,Wunderground v.1.15,2017-05-26 18:27:00,
2017-05-26 13:32:00,61.8,44.5,29.72,West,278,17.0,21.0,53,0.00,,,0.00,649,Wunderground v.1.15,2017-05-26 18:32:00,
2017-05-26 13:37:00,62.2,44.3,29.72,NW,304,17.0,24.0,52,0.00,,,0.00,540,Wunderground v.1.15,2017-05-26 18:37:00,
2017-05-26 13:42:00,61.8,44.5,29.72,WNW,291,9.0,17.0,53,0.00,,,0.00,461,Wunderground v.1.15,2017-05-26 18:42:00,
2017-05-26 13:44:00,61.6,44.3,29.72,West,278,16.0,21.0,53,0.00,,,0.00,403,Wunderground v.1.15,2017-05-26 18:44:00,
2017-05-26 13:50:00,62.1,45.7,29.72,West,269,15.0,15.0,55,0.00,,,0.00,1013,Wunderground v.1.15,2017-05-26 18:50:00,
2017-05-26 13:55:00,63.1,44.7,29.72,WNW,299,15.0,22.0,51,0.00,,,0.00,1042,Wunderground v.1.15,2017-05-26 18:55:00,
2017-05-26 14:00:00,63.7,45.2,29.72,West,267,20.0,22.0,51,0.00,,,0.00,986,Wunderground v.1.15,2017-05-26 19:00:00,
2017-05-26 14:05:00,64.1,45.1,29.73,West,273,12.0,22.0,50,0.00,,,0.00,967,Wunderground v.1.15,2017-05-26 19:05:00,
2017-05-26 14:10:00,64.3,45.3,29.72,West,263,14.0,16.0,50,0.00,,,0.00,1071,Wunderground v.1.15,2017-05-26 19:10:00,
2017-05-26 14:15:00,64.7,45.1,29.73,West,273,5.0,18.0,49,0.00,,,0.00,1132,Wunderground v.1.15,2017-05-26 19:15:00,
2017-05-26 14:20:00,64.0,45.0,29.73,WNW,284,10.0,15.0,50,0.00,,,0.00,390,Wunderground v.1.15,2017-05-26 19:20:00,
2017-05-26 14:25:00,63.9,44.9,29.72,West,262,7.0,18.0,50,0.00,,,0.00,480,Wunderground v.1.15,2017-05-26 19:25:00,
2017-05-26 14:30:00,63.8,44.8,29.73,West,275,13.0,16.0,50,0.00,,,0.00,545,Wunderground v.1.15,2017-05-26 19:30:00,
2017-05-26 14:35:00,63.8,45.3,29.72,WNW,286,20.0,24.0,51,0.00,,,0.00,874,Wunderground v.1.15,2017-05-26 19:35:00,
2017-05-26 14:40:00,64.2,45.7,29.72,WNW,292,13.0,13.0,51,0.00,,,0.00,519,Wunderground v.1.15,2017-05-26 19:40:00,
2017-05-26 14:41:00,64.3,45.3,29.73,WNW,290,12.0,14.0,50,0.00,,,0.00,575,Wunderground v.1.15,2017-05-26 19:41:00,
2017-05-26 14:46:00,64.3,45.8,29.72,WSW,257,13.0,16.0,51,0.00,,,0.00,1129,Wunderground v.1.15,2017-05-26 19:46:00,
2017-05-26 14:51:00,64.8,45.2,29.73,WNW,293,13.0,18.0,49,0.00,,,0.00,563,Wunderground v.1.15,2017-05-26 19:51:00,
2017-05-26 14:56:00,64.8,45.2,29.73,West,267,17.0,21.0,49,0.00,,,0.00,352,Wunderground v.1.15,2017-05-26 19:56:00,
2017-05-26 15:01:00,64.8,46.2,29.72,WSW,254,15.0,18.0,51,0.00,,,0.00,1014,Wunderground v.1.15,2017-05-26 20:01:00,
2017-05-26 15:06:00,65.5,45.3,29.73,WSW,249,12.0,20.0,48,0.00,,,0.00,362,Wunderground v.1.15,2017-05-26 20:06:00,
2017-05-26 15:11:00,65.4,45.7,29.73,WSW,253,13.0,20.0,49,0.00,,,0.00,489,Wunderground v.1.15,2017-05-26 20:11:00,
2017-05-26 15:16:00,65.4,45.2,29.73,West,259,11.0,20.0,48,0.00,,,0.00,545,Wunderground v.1.15,2017-05-26 20:16:00,
2017-05-26 15:21:00,65.2,46.1,29.73,WNW,287,12.0,15.0,50,0.00,,,0.00,483,Wunderground v.1.15,2017-05-26 20:21:00,
2017-05-26 15:26:00,65.0,45.4,29.73,West,273,17.0,20.0,49,0.00,,,0.00,443,Wunderground v.1.15,2017-05-26 20:26:00,
2017-05-26 15:31:00,65.6,45.9,29.73,WSW,249,16.0,19.0,49,0.00,,,0.00,1181,Wunderground v.1.15,2017-05-26 20:31:00,
2017-05-26 15:36:00,66.0,45.7,29.73,West,279,8.0,21.0,48,0.00,,,0.00,383,Wunderground v.1.15,2017-05-26 20:36:00,
2017-05-26 15:41:00,65.6,45.9,29.72,West,267,11.0,14.0,49,0.00,,,0.00,925,Wunderground v.1.15,2017-05-26 20:41:00,
2017-05-26 15:46:00,65.9,45.6,29.72,WNW,296,13.0,19.0,48,0.00,,,0.00,248,Wunderground v.1.15,2017-05-26 20:46:00,
2017-05-26 15:51:00,65.4,46.3,29.72,WNW,284,13.0,21.0,50,0.00,,,0.00,981,Wunderground v.1.15,2017-05-26 20:51:00,
2017-05-26 15:57:00,65.9,45.6,29.73,West,265,13.0,21.0,48,0.00,,,0.00,255,Wunderground v.1.15,2017-05-26 20:57:00,
2017-05-26 16:00:00,65.6,45.4,29.73,WNW,284,7.0,13.0,48,0.00,,,0.00,255,Wunderground v.1.15,2017-05-26 21:00:00,
2017-05-26 16:05:00,66.3,46.0,29.73,West,263,10.0,21.0,48,0.00,,,0.00,928,Wunderground v.1.15,2017-05-26 21:05:00,
2017-05-26 16:10:00,66.6,45.7,29.73,WNW,282,19.0,21.0,47,0.00,,,0.00,909,Wunderground v.1.15,2017-05-26 21:10:00,
2017-05-26 16:15:00,66.0,45.7,29.73,WNW,292,14.0,21.0,48,0.00,,,0.00,306,Wunderground v.1.15,2017-05-26 21:15:00,
2017-05-26 16:20:00,65.7,46.5,29.74,WNW,300,14.0,14.0,50,0.00,,,0.00,1034,Wunderground v.1.15,2017-05-26 21:20:00,
2017-05-26 16:25:00,66.2,45.9,29.74,WSW,255,14.0,21.0,48,0.00,,,0.00,1034,Wunderground v.1.15,2017-05-26 21:25:00,
2017-05-26 16:30:00,66.7,45.3,29.73,West,267,13.0,14.0,46,0.00,,,0.00,397,Wunderground v.1.15,2017-05-26 21:30:00,
2017-05-26 16:35:00,66.3,45.5,29.73,West,281,13.0,18.0,47,0.00,,,0.00,260,Wunderground v.1.15,2017-05-26 21:35:00,
2017-05-26 16:40:00,65.8,44.4,29.73,WSW,252,11.0,14.0,46,0.00,,,0.00,248,Wunderground v.1.15,2017-05-26 21:40:00,
2017-05-26 16:45:00,65.3,45.6,29.74,WNW,303,18.0,20.0,49,0.00,,,0.00,357,Wunderground v.1.15,2017-05-26 21:45:00,
2017-05-26 16:50:00,66.1,46.4,29.74,West,264,11.0,14.0,49,0.00,,,0.00,851,Wunderground v.1.15,2017-05-26 21:50:00,
2017-05-26 16:55:00,66.8,45.9,29.74,West,273,10.0,17.0,47,0.00,,,0.00,870,Wunderground v.1.15,2017-05-26 21:55:00,
2017-05-26 17:00:00,67.3,46.4,29.74,WSW,244,10.0,12.0,47,0.00,,,0.00,824,Wunderground v.1.15,2017-05-26 22:00:00,
2017-05-26 17:05:00,67.0,46.1,29.74,WSW,254,13.0,18.0,47,0.00,,,0.00,824,Wunderground v.1.15,2017-05-26 22:05:00,
2017-05-26 17:10:00,67.1,46.2,29.74,WSW,249,15.0,15.0,47,0.00,,,0.00,745,Wunderground v.1.15,2017-05-26 22:10:00,
2017-05-26 17:15:00,67.5,45.4,29.74,West,279,17.0,18.0,45,0.00,,,0.00,578,Wunderground v.1.15,2017-05-26 22:15:00,
2017-05-26 17:20:00,66.6,45.2,29.74,West,275,10.0,14.0,46,0.00,,,0.00,239,Wunderground v.1.15,2017-05-26 22:20:00,
2017-05-26 17:25:00,65.7,45.5,29.74,NW,311,9.0,16.0,48,0.00,,,0.00,276,Wunderground v.1.15,2017-05-26 22:25:00,
2017-05-26 17:30:00,65.4,45.2,29.74,WSW,254,16.0,17.0,48,0.00,,,0.00,269,Wunderground v.1.15,2017-05-26 22:30:00,
2017-05-26 17:35:00,65.4,44.6,29.74,West,264,7.0,18.0,47,0.00,,,0.00,251,Wunderground v.1.15,2017-05-26 22:35:00,
2017-05-26 17:40:00,65.4,45.7,29.74,WNW,291,8.0,12.0,49,0.00,,,0.00,276,Wunderground v.1.15,2017-05-26 22:40:00,
2017-05-26 17:45:00,65.6,45.4,29.74,WNW,284,15.0,16.0,48,0.00,,,0.00,311,Wunderground v.1.15,2017-05-26 22:45:00,